Pep, Texas
Current Conditions -  °F | °C
As of 8:53 AM on Wednesday 22 Oct 2014 (Local Time) from KLBB Reporting Station
Haze Haze  
Wind Chill: 62°   Ceiling: 4100
Heat Index: 62°   Visibility: 6mi
Dew Point: 59°   Wind: 9mph
Humidity: 90%   Direction: 190°S
Pressure: 30.13"   Gusts: NA
Location:  33.81°N, 102.56°W
Report Text: KLBB 221353Z 19008KT 6SM BR FEW022 BKN041 OVC060 17/15 A3013 RMK AO2 RAE48 SLP166 VCSH BINOVC P0002 T01670150
Loading
Personal Weather Stations






























Interactive Weather Map
Tropical Storm Tracking
New forecast layout! Learn more

10-Day Weather Forecast

Advertisements
Track Severe Weather on mobile